sensor_id;sensor_type;location;lat;lon;timestamp;P1;durP1;ratioP1;P2;durP2;ratioP2
24801;SDS011;12898;50.520;12.152;2023-12-07T00:01:49;24.80;;;14.90;;
24801;SDS011;12898;50.520;12.152;2023-12-07T00:04:15;22.50;;;13.90;;
24801;SDS011;12898;50.520;12.152;2023-12-07T00:06:41;24.67;;;14.30;;
24801;SDS011;12898;50.520;12.152;2023-12-07T00:09:07;23.67;;;14.20;;
24801;SDS011;12898;50.520;12.152;2023-12-07T00:11:32;24.70;;;15.17;;
24801;SDS011;12898;50.520;12.152;2023-12-07T00:13:58;23.50;;;14.53;;
24801;SDS011;12898;50.520;12.152;2023-12-07T00:16:24;23.27;;;13.97;;
24801;SDS011;12898;50.520;12.152;2023-12-07T00:18:49;26.30;;;16.50;;
24801;SDS011;12898;50.520;12.152;2023-12-07T00:21:15;24.90;;;15.63;;
24801;SDS011;12898;50.520;12.152;2023-12-07T00:23:41;25.30;;;15.40;;
24801;SDS011;12898;50.520;12.152;2023-12-07T00:26:07;27.40;;;16.97;;
24801;SDS011;12898;50.520;12.152;2023-12-07T00:28:32;26.20;;;15.30;;
24801;SDS011;12898;50.520;12.152;2023-12-07T00:30:58;24.47;;;15.13;;
24801;SDS011;12898;50.520;12.152;2023-12-07T00:33:24;25.63;;;14.87;;
24801;SDS011;12898;50.520;12.152;2023-12-07T00:35:50;23.77;;;14.40;;
24801;SDS011;12898;50.520;12.152;2023-12-07T00:38:15;26.23;;;16.00;;
24801;SDS011;12898;50.520;12.152;2023-12-07T00:40:41;24.37;;;14.20;;
24801;SDS011;12898;50.520;12.152;2023-12-07T00:43:07;24.00;;;15.20;;
24801;SDS011;12898;50.520;12.152;2023-12-07T00:45:33;23.20;;;13.43;;
24801;SDS011;12898;50.520;12.152;2023-12-07T00:47:59;24.87;;;14.70;;
24801;SDS011;12898;50.520;12.152;2023-12-07T00:50:25;24.43;;;14.07;;
24801;SDS011;12898;50.520;12.152;2023-12-07T00:52:51;24.77;;;14.40;;
24801;SDS011;12898;50.520;12.152;2023-12-07T00:55:17;24.53;;;14.87;;
24801;SDS011;12898;50.520;12.152;2023-12-07T00:57:42;22.03;;;13.37;;
24801;SDS011;12898;50.520;12.152;2023-12-07T01:00:08;24.33;;;14.43;;
24801;SDS011;12898;50.520;12.152;2023-12-07T01:02:35;22.73;;;12.83;;
24801;SDS011;12898;50.520;12.152;2023-12-07T01:05:01;24.67;;;14.63;;
24801;SDS011;12898;50.520;12.152;2023-12-07T01:07:27;23.23;;;13.47;;
24801;SDS011;12898;50.520;12.152;2023-12-07T01:09:53;22.23;;;13.00;;
24801;SDS011;12898;50.520;12.152;2023-12-07T01:12:18;22.87;;;13.43;;
24801;SDS011;12898;50.520;12.152;2023-12-07T01:14:45;22.67;;;13.63;;
24801;SDS011;12898;50.520;12.152;2023-12-07T01:17:11;21.50;;;11.90;;
24801;SDS011;12898;50.520;12.152;2023-12-07T01:19:36;20.73;;;12.87;;
24801;SDS011;12898;50.520;12.152;2023-12-07T01:22:02;20.23;;;12.27;;
24801;SDS011;12898;50.520;12.152;2023-12-07T01:24:28;21.73;;;12.33;;
24801;SDS011;12898;50.520;12.152;2023-12-07T01:26:54;22.13;;;12.33;;
24801;SDS011;12898;50.520;12.152;2023-12-07T01:29:20;22.63;;;12.73;;
24801;SDS011;12898;50.520;12.152;2023-12-07T01:31:46;22.33;;;13.17;;
24801;SDS011;12898;50.520;12.152;2023-12-07T01:34:12;20.80;;;12.47;;
24801;SDS011;12898;50.520;12.152;2023-12-07T01:36:38;22.00;;;13.07;;
24801;SDS011;12898;50.520;12.152;2023-12-07T01:39:03;22.27;;;13.27;;
24801;SDS011;12898;50.520;12.152;2023-12-07T01:41:30;23.83;;;13.53;;
24801;SDS011;12898;50.520;12.152;2023-12-07T01:43:56;23.90;;;13.83;;
24801;SDS011;12898;50.520;12.152;2023-12-07T01:46:22;23.27;;;13.80;;
24801;SDS011;12898;50.520;12.152;2023-12-07T01:48:48;21.03;;;12.73;;
24801;SDS011;12898;50.520;12.152;2023-12-07T01:51:15;23.27;;;13.23;;
24801;SDS011;12898;50.520;12.152;2023-12-07T01:53:42;23.07;;;13.47;;
24801;SDS011;12898;50.520;12.152;2023-12-07T01:56:08;24.60;;;14.80;;
24801;SDS011;12898;50.520;12.152;2023-12-07T01:58:35;23.87;;;14.97;;
24801;SDS011;12898;50.520;12.152;2023-12-07T02:01:02;22.87;;;14.00;;
24801;SDS011;12898;50.520;12.152;2023-12-07T02:03:30;24.20;;;13.67;;
24801;SDS011;12898;50.520;12.152;2023-12-07T02:05:56;23.37;;;13.70;;
24801;SDS011;12898;50.520;12.152;2023-12-07T02:08:23;27.47;;;14.07;;
24801;SDS011;12898;50.520;12.152;2023-12-07T02:10:49;22.93;;;13.73;;
24801;SDS011;12898;50.520;12.152;2023-12-07T02:13:17;25.27;;;14.23;;
24801;SDS011;12898;50.520;12.152;2023-12-07T02:15:45;26.47;;;14.40;;
24801;SDS011;12898;50.520;12.152;2023-12-07T02:21:12;25.40;;;13.93;;
24801;SDS011;12898;50.520;12.152;2023-12-07T02:23:46;24.60;;;14.50;;
24801;SDS011;12898;50.520;12.152;2023-12-07T02:29:15;24.40;;;13.10;;
24801;SDS011;12898;50.520;12.152;2023-12-07T02:31:41;21.23;;;12.40;;
24801;SDS011;12898;50.520;12.152;2023-12-07T02:34:09;21.87;;;12.43;;
24801;SDS011;12898;50.520;12.152;2023-12-07T02:36:34;22.33;;;12.80;;
24801;SDS011;12898;50.520;12.152;2023-12-07T02:39:04;20.47;;;11.97;;
24801;SDS011;12898;50.520;12.152;2023-12-07T02:41:32;20.80;;;12.17;;
24801;SDS011;12898;50.520;12.152;2023-12-07T02:43:59;21.60;;;12.67;;
24801;SDS011;12898;50.520;12.152;2023-12-07T02:46:25;20.83;;;11.47;;
24801;SDS011;12898;50.520;12.152;2023-12-07T02:48:51;23.37;;;14.73;;
24801;SDS011;12898;50.520;12.152;2023-12-07T02:51:17;24.40;;;14.40;;
24801;SDS011;12898;50.520;12.152;2023-12-07T02:53:42;25.10;;;13.33;;
24801;SDS011;12898;50.520;12.152;2023-12-07T02:56:08;23.20;;;13.87;;
24801;SDS011;12898;50.520;12.152;2023-12-07T02:58:34;23.80;;;14.20;;
24801;SDS011;12898;50.520;12.152;2023-12-07T03:01:00;25.70;;;14.90;;
24801;SDS011;12898;50.520;12.152;2023-12-07T03:03:25;24.93;;;14.63;;
24801;SDS011;12898;50.520;12.152;2023-12-07T03:05:51;25.47;;;15.47;;
24801;SDS011;12898;50.520;12.152;2023-12-07T03:08:17;22.73;;;13.83;;
24801;SDS011;12898;50.520;12.152;2023-12-07T03:10:43;26.97;;;16.13;;
24801;SDS011;12898;50.520;12.152;2023-12-07T03:13:08;24.80;;;15.17;;
24801;SDS011;12898;50.520;12.152;2023-12-07T03:15:34;27.33;;;15.73;;
24801;SDS011;12898;50.520;12.152;2023-12-07T03:18:00;27.60;;;15.97;;
24801;SDS011;12898;50.520;12.152;2023-12-07T03:20:26;28.20;;;16.30;;
24801;SDS011;12898;50.520;12.152;2023-12-07T03:22:51;26.33;;;15.40;;
24801;SDS011;12898;50.520;12.152;2023-12-07T03:25:17;26.37;;;15.80;;
24801;SDS011;12898;50.520;12.152;2023-12-07T03:27:43;25.73;;;15.70;;
24801;SDS011;12898;50.520;12.152;2023-12-07T03:30:09;26.27;;;14.97;;
24801;SDS011;12898;50.520;12.152;2023-12-07T03:32:35;24.90;;;15.20;;
24801;SDS011;12898;50.520;12.152;2023-12-07T03:35:01;29.03;;;15.80;;
24801;SDS011;12898;50.520;12.152;2023-12-07T03:37:30;24.10;;;14.70;;
24801;SDS011;12898;50.520;12.152;2023-12-07T03:39:56;27.70;;;15.67;;
24801;SDS011;12898;50.520;12.152;2023-12-07T03:42:21;25.63;;;14.67;;
24801;SDS011;12898;50.520;12.152;2023-12-07T03:44:47;27.13;;;15.37;;
24801;SDS011;12898;50.520;12.152;2023-12-07T03:47:13;28.00;;;15.57;;
24801;SDS011;12898;50.520;12.152;2023-12-07T03:49:39;24.13;;;14.30;;
24801;SDS011;12898;50.520;12.152;2023-12-07T03:52:06;25.60;;;14.77;;
24801;SDS011;12898;50.520;12.152;2023-12-07T03:54:32;22.67;;;13.83;;
24801;SDS011;12898;50.520;12.152;2023-12-07T03:56:57;23.50;;;14.37;;
24801;SDS011;12898;50.520;12.152;2023-12-07T03:59:23;23.40;;;13.23;;
24801;SDS011;12898;50.520;12.152;2023-12-07T04:01:49;25.73;;;14.87;;
24801;SDS011;12898;50.520;12.152;2023-12-07T04:04:14;24.63;;;13.47;;
24801;SDS011;12898;50.520;12.152;2023-12-07T04:06:40;21.23;;;13.40;;
24801;SDS011;12898;50.520;12.152;2023-12-07T04:09:06;26.67;;;15.67;;
24801;SDS011;12898;50.520;12.152;2023-12-07T04:11:32;23.60;;;14.20;;
24801;SDS011;12898;50.520;12.152;2023-12-07T04:13:58;23.40;;;13.43;;
24801;SDS011;12898;50.520;12.152;2023-12-07T04:16:24;24.67;;;13.23;;
24801;SDS011;12898;50.520;12.152;2023-12-07T04:18:51;23.13;;;13.70;;
24801;SDS011;12898;50.520;12.152;2023-12-07T04:21:16;22.10;;;12.40;;
24801;SDS011;12898;50.520;12.152;2023-12-07T04:23:42;23.17;;;12.73;;
24801;SDS011;12898;50.520;12.152;2023-12-07T04:26:08;24.80;;;14.87;;
24801;SDS011;12898;50.520;12.152;2023-12-07T04:28:34;24.03;;;14.20;;
24801;SDS011;12898;50.520;12.152;2023-12-07T04:30:59;23.30;;;13.40;;
24801;SDS011;12898;50.520;12.152;2023-12-07T04:33:25;21.27;;;13.13;;
24801;SDS011;12898;50.520;12.152;2023-12-07T04:35:51;23.27;;;13.83;;
24801;SDS011;12898;50.520;12.152;2023-12-07T04:38:17;21.13;;;13.40;;
24801;SDS011;12898;50.520;12.152;2023-12-07T04:40:42;25.13;;;14.87;;
24801;SDS011;12898;50.520;12.152;2023-12-07T04:43:08;25.80;;;14.77;;
24801;SDS011;12898;50.520;12.152;2023-12-07T04:45:34;27.93;;;15.60;;
24801;SDS011;12898;50.520;12.152;2023-12-07T04:48:00;23.90;;;14.00;;
24801;SDS011;12898;50.520;12.152;2023-12-07T04:50:26;26.77;;;15.30;;
24801;SDS011;12898;50.520;12.152;2023-12-07T04:52:51;26.43;;;15.77;;
24801;SDS011;12898;50.520;12.152;2023-12-07T04:55:19;25.13;;;15.77;;
24801;SDS011;12898;50.520;12.152;2023-12-07T04:57:45;25.70;;;14.90;;
24801;SDS011;12898;50.520;12.152;2023-12-07T05:00:11;24.93;;;14.60;;
24801;SDS011;12898;50.520;12.152;2023-12-07T05:02:38;29.07;;;16.70;;
24801;SDS011;12898;50.520;12.152;2023-12-07T05:05:04;28.40;;;16.30;;
24801;SDS011;12898;50.520;12.152;2023-12-07T05:07:30;24.77;;;15.00;;
24801;SDS011;12898;50.520;12.152;2023-12-07T05:09:56;26.50;;;16.20;;
24801;SDS011;12898;50.520;12.152;2023-12-07T05:12:22;26.70;;;15.83;;
24801;SDS011;12898;50.520;12.152;2023-12-07T05:14:47;27.93;;;16.67;;
24801;SDS011;12898;50.520;12.152;2023-12-07T05:17:13;28.43;;;16.17;;
24801;SDS011;12898;50.520;12.152;2023-12-07T05:19:40;27.30;;;15.67;;
24801;SDS011;12898;50.520;12.152;2023-12-07T05:22:06;27.23;;;16.03;;
24801;SDS011;12898;50.520;12.152;2023-12-07T05:24:31;26.53;;;16.70;;
24801;SDS011;12898;50.520;12.152;2023-12-07T05:26:59;27.80;;;15.53;;
24801;SDS011;12898;50.520;12.152;2023-12-07T05:29:27;26.83;;;15.03;;
24801;SDS011;12898;50.520;12.152;2023-12-07T05:31:53;26.93;;;15.37;;
24801;SDS011;12898;50.520;12.152;2023-12-07T05:34:19;29.70;;;16.37;;
24801;SDS011;12898;50.520;12.152;2023-12-07T05:36:44;26.80;;;15.80;;
24801;SDS011;12898;50.520;12.152;2023-12-07T05:39:11;29.03;;;15.30;;
24801;SDS011;12898;50.520;12.152;2023-12-07T05:41:38;25.03;;;15.10;;
24801;SDS011;12898;50.520;12.152;2023-12-07T05:44:04;28.57;;;16.27;;
24801;SDS011;12898;50.520;12.152;2023-12-07T05:46:30;29.73;;;16.70;;
24801;SDS011;12898;50.520;12.152;2023-12-07T05:48:57;31.50;;;17.10;;
24801;SDS011;12898;50.520;12.152;2023-12-07T05:51:23;29.97;;;17.10;;
24801;SDS011;12898;50.520;12.152;2023-12-07T05:53:49;28.37;;;16.57;;
24801;SDS011;12898;50.520;12.152;2023-12-07T05:56:21;30.67;;;15.50;;
24801;SDS011;12898;50.520;12.152;2023-12-07T05:58:47;29.10;;;16.63;;
24801;SDS011;12898;50.520;12.152;2023-12-07T06:01:16;29.73;;;17.67;;
24801;SDS011;12898;50.520;12.152;2023-12-07T06:03:44;27.73;;;16.27;;
24801;SDS011;12898;50.520;12.152;2023-12-07T06:06:10;29.67;;;16.80;;
24801;SDS011;12898;50.520;12.152;2023-12-07T06:08:40;27.90;;;17.40;;
24801;SDS011;12898;50.520;12.152;2023-12-07T06:11:06;29.92;;;20.15;;
24801;SDS011;12898;50.520;12.152;2023-12-07T06:13:32;27.13;;;17.67;;
24801;SDS011;12898;50.520;12.152;2023-12-07T06:15:58;28.30;;;16.43;;
24801;SDS011;12898;50.520;12.152;2023-12-07T06:18:26;28.37;;;16.73;;
24801;SDS011;12898;50.520;12.152;2023-12-07T06:20:52;26.70;;;15.47;;
24801;SDS011;12898;50.520;12.152;2023-12-07T06:23:18;28.33;;;17.50;;
24801;SDS011;12898;50.520;12.152;2023-12-07T06:25:44;27.63;;;16.23;;
24801;SDS011;12898;50.520;12.152;2023-12-07T06:28:10;26.70;;;15.97;;
24801;SDS011;12898;50.520;12.152;2023-12-07T06:30:35;24.87;;;15.07;;
24801;SDS011;12898;50.520;12.152;2023-12-07T06:33:02;27.10;;;16.03;;
24801;SDS011;12898;50.520;12.152;2023-12-07T06:35:28;28.53;;;17.27;;
24801;SDS011;12898;50.520;12.152;2023-12-07T06:37:55;30.80;;;17.93;;
24801;SDS011;12898;50.520;12.152;2023-12-07T06:40:21;29.13;;;17.43;;
24801;SDS011;12898;50.520;12.152;2023-12-07T06:42:47;28.73;;;17.23;;
24801;SDS011;12898;50.520;12.152;2023-12-07T06:45:13;29.13;;;17.77;;
24801;SDS011;12898;50.520;12.152;2023-12-07T06:47:39;29.67;;;17.77;;
24801;SDS011;12898;50.520;12.152;2023-12-07T06:50:07;28.90;;;17.37;;
24801;SDS011;12898;50.520;12.152;2023-12-07T06:52:35;30.70;;;18.40;;
24801;SDS011;12898;50.520;12.152;2023-12-07T06:55:01;30.60;;;17.43;;
24801;SDS011;12898;50.520;12.152;2023-12-07T06:57:27;31.47;;;17.90;;
24801;SDS011;12898;50.520;12.152;2023-12-07T06:59:53;29.73;;;17.40;;
24801;SDS011;12898;50.520;12.152;2023-12-07T07:02:19;29.70;;;18.00;;
24801;SDS011;12898;50.520;12.152;2023-12-07T07:04:44;28.27;;;16.90;;
24801;SDS011;12898;50.520;12.152;2023-12-07T07:07:13;30.07;;;18.53;;
24801;SDS011;12898;50.520;12.152;2023-12-07T07:09:40;31.40;;;17.80;;
24801;SDS011;12898;50.520;12.152;2023-12-07T07:12:06;30.00;;;18.37;;
24801;SDS011;12898;50.520;12.152;2023-12-07T07:14:32;34.73;;;20.03;;
24801;SDS011;12898;50.520;12.152;2023-12-07T07:16:58;30.77;;;19.20;;
24801;SDS011;12898;50.520;12.152;2023-12-07T07:19:23;33.03;;;19.33;;
24801;SDS011;12898;50.520;12.152;2023-12-07T07:21:49;32.13;;;19.03;;
24801;SDS011;12898;50.520;12.152;2023-12-07T07:24:15;27.83;;;16.37;;
24801;SDS011;12898;50.520;12.152;2023-12-07T07:26:41;30.23;;;18.13;;
24801;SDS011;12898;50.520;12.152;2023-12-07T07:29:06;29.97;;;18.13;;
24801;SDS011;12898;50.520;12.152;2023-12-07T07:31:33;35.90;;;21.67;;
24801;SDS011;12898;50.520;12.152;2023-12-07T07:33:59;36.03;;;22.07;;
24801;SDS011;12898;50.520;12.152;2023-12-07T07:36:25;32.67;;;20.20;;
24801;SDS011;12898;50.520;12.152;2023-12-07T07:38:51;37.20;;;21.60;;
24801;SDS011;12898;50.520;12.152;2023-12-07T07:41:17;34.77;;;20.60;;
24801;SDS011;12898;50.520;12.152;2023-12-07T07:43:42;33.07;;;21.50;;
24801;SDS011;12898;50.520;12.152;2023-12-07T07:46:08;34.70;;;21.23;;
24801;SDS011;12898;50.520;12.152;2023-12-07T07:48:34;34.57;;;20.77;;
24801;SDS011;12898;50.520;12.152;2023-12-07T07:50:59;35.93;;;20.90;;
24801;SDS011;12898;50.520;12.152;2023-12-07T07:53:25;34.10;;;20.23;;
24801;SDS011;12898;50.520;12.152;2023-12-07T07:55:51;34.43;;;20.73;;
24801;SDS011;12898;50.520;12.152;2023-12-07T07:58:17;35.57;;;21.10;;
24801;SDS011;12898;50.520;12.152;2023-12-07T08:00:42;37.87;;;20.63;;
24801;SDS011;12898;50.520;12.152;2023-12-07T08:03:08;38.23;;;21.07;;
24801;SDS011;12898;50.520;12.152;2023-12-07T08:05:34;28.83;;;18.10;;
24801;SDS011;12898;50.520;12.152;2023-12-07T08:08:00;31.70;;;19.37;;
24801;SDS011;12898;50.520;12.152;2023-12-07T08:10:26;31.93;;;18.80;;
24801;SDS011;12898;50.520;12.152;2023-12-07T08:12:51;34.63;;;21.07;;
24801;SDS011;12898;50.520;12.152;2023-12-07T08:15:17;34.50;;;20.53;;
24801;SDS011;12898;50.520;12.152;2023-12-07T08:17:43;34.10;;;20.10;;
24801;SDS011;12898;50.520;12.152;2023-12-07T08:20:09;29.93;;;19.33;;
24801;SDS011;12898;50.520;12.152;2023-12-07T08:22:36;35.23;;;20.43;;
24801;SDS011;12898;50.520;12.152;2023-12-07T08:25:03;32.07;;;19.03;;
24801;SDS011;12898;50.520;12.152;2023-12-07T08:27:31;28.43;;;18.10;;
24801;SDS011;12898;50.520;12.152;2023-12-07T08:29:58;30.47;;;19.23;;
24801;SDS011;12898;50.520;12.152;2023-12-07T08:32:24;30.23;;;18.10;;
24801;SDS011;12898;50.520;12.152;2023-12-07T08:34:51;28.83;;;17.87;;
24801;SDS011;12898;50.520;12.152;2023-12-07T08:37:17;28.47;;;17.30;;
24801;SDS011;12898;50.520;12.152;2023-12-07T08:39:43;29.33;;;18.00;;
24801;SDS011;12898;50.520;12.152;2023-12-07T08:42:09;28.03;;;17.77;;
24801;SDS011;12898;50.520;12.152;2023-12-07T08:44:35;27.27;;;16.83;;
24801;SDS011;12898;50.520;12.152;2023-12-07T08:47:01;29.07;;;17.13;;
24801;SDS011;12898;50.520;12.152;2023-12-07T08:49:27;27.90;;;17.20;;
24801;SDS011;12898;50.520;12.152;2023-12-07T08:51:53;27.00;;;17.43;;
24801;SDS011;12898;50.520;12.152;2023-12-07T08:54:19;27.30;;;17.13;;
24801;SDS011;12898;50.520;12.152;2023-12-07T08:56:45;29.47;;;17.43;;
24801;SDS011;12898;50.520;12.152;2023-12-07T08:59:10;24.27;;;14.97;;
24801;SDS011;12898;50.520;12.152;2023-12-07T09:01:36;26.03;;;16.37;;
24801;SDS011;12898;50.520;12.152;2023-12-07T09:04:02;25.20;;;15.50;;
24801;SDS011;12898;50.520;12.152;2023-12-07T09:06:28;26.20;;;16.23;;
24801;SDS011;12898;50.520;12.152;2023-12-07T09:08:54;25.03;;;14.80;;
24801;SDS011;12898;50.520;12.152;2023-12-07T09:11:20;26.47;;;15.70;;
24801;SDS011;12898;50.520;12.152;2023-12-07T09:13:46;24.63;;;15.20;;
24801;SDS011;12898;50.520;12.152;2023-12-07T09:16:12;25.70;;;15.83;;
24801;SDS011;12898;50.520;12.152;2023-12-07T09:18:38;26.17;;;15.47;;
24801;SDS011;12898;50.520;12.152;2023-12-07T09:21:03;25.03;;;15.73;;
24801;SDS011;12898;50.520;12.152;2023-12-07T09:23:30;22.13;;;14.23;;
24801;SDS011;12898;50.520;12.152;2023-12-07T09:25:56;22.77;;;14.13;;
24801;SDS011;12898;50.520;12.152;2023-12-07T09:28:22;23.77;;;15.27;;
24801;SDS011;12898;50.520;12.152;2023-12-07T09:30:48;24.23;;;14.63;;
24801;SDS011;12898;50.520;12.152;2023-12-07T09:33:14;24.77;;;14.37;;
24801;SDS011;12898;50.520;12.152;2023-12-07T09:35:40;23.93;;;14.90;;
24801;SDS011;12898;50.520;12.152;2023-12-07T09:38:06;25.10;;;14.97;;
24801;SDS011;12898;50.520;12.152;2023-12-07T09:40:32;26.50;;;15.10;;
24801;SDS011;12898;50.520;12.152;2023-12-07T09:42:58;23.33;;;14.43;;
24801;SDS011;12898;50.520;12.152;2023-12-07T09:45:24;26.57;;;16.33;;
24801;SDS011;12898;50.520;12.152;2023-12-07T09:47:53;27.07;;;16.70;;
24801;SDS011;12898;50.520;12.152;2023-12-07T09:50:20;29.33;;;17.97;;
24801;SDS011;12898;50.520;12.152;2023-12-07T09:52:48;25.60;;;15.50;;
24801;SDS011;12898;50.520;12.152;2023-12-07T09:55:16;28.23;;;17.23;;
24801;SDS011;12898;50.520;12.152;2023-12-07T09:57:43;25.07;;;15.57;;
24801;SDS011;12898;50.520;12.152;2023-12-07T10:00:10;25.10;;;16.43;;
24801;SDS011;12898;50.520;12.152;2023-12-07T10:02:39;28.30;;;16.20;;
24801;SDS011;12898;50.520;12.152;2023-12-07T10:05:10;25.47;;;16.27;;
24801;SDS011;12898;50.520;12.152;2023-12-07T10:07:42;25.33;;;16.47;;
24801;SDS011;12898;50.520;12.152;2023-12-07T10:10:13;24.27;;;15.10;;
24801;SDS011;12898;50.520;12.152;2023-12-07T10:12:44;27.27;;;17.33;;
24801;SDS011;12898;50.520;12.152;2023-12-07T10:15:12;28.30;;;17.23;;
24801;SDS011;12898;50.520;12.152;2023-12-07T10:17:58;25.93;;;16.53;;
24801;SDS011;12898;50.520;12.152;2023-12-07T10:20:25;27.63;;;17.37;;
24801;SDS011;12898;50.520;12.152;2023-12-07T10:23:02;29.77;;;17.17;;
24801;SDS011;12898;50.520;12.152;2023-12-07T10:25:35;28.07;;;17.10;;
24801;SDS011;12898;50.520;12.152;2023-12-07T10:28:06;25.73;;;17.03;;
24801;SDS011;12898;50.520;12.152;2023-12-07T10:30:33;27.23;;;17.37;;
24801;SDS011;12898;50.520;12.152;2023-12-07T10:32:59;27.07;;;16.73;;
24801;SDS011;12898;50.520;12.152;2023-12-07T10:35:28;27.43;;;17.80;;
24801;SDS011;12898;50.520;12.152;2023-12-07T10:37:54;28.27;;;18.17;;
24801;SDS011;12898;50.520;12.152;2023-12-07T10:40:23;27.53;;;17.07;;
24801;SDS011;12898;50.520;12.152;2023-12-07T10:42:48;27.40;;;16.47;;
24801;SDS011;12898;50.520;12.152;2023-12-07T10:45:20;27.87;;;17.87;;
24801;SDS011;12898;50.520;12.152;2023-12-07T10:47:47;26.87;;;16.50;;
24801;SDS011;12898;50.520;12.152;2023-12-07T10:50:14;26.50;;;16.47;;
24801;SDS011;12898;50.520;12.152;2023-12-07T10:52:48;26.33;;;16.77;;
24801;SDS011;12898;50.520;12.152;2023-12-07T10:55:21;25.53;;;15.63;;
24801;SDS011;12898;50.520;12.152;2023-12-07T10:57:53;25.37;;;15.90;;
24801;SDS011;12898;50.520;12.152;2023-12-07T11:00:21;27.40;;;16.97;;
24801;SDS011;12898;50.520;12.152;2023-12-07T11:02:52;27.83;;;16.17;;
24801;SDS011;12898;50.520;12.152;2023-12-07T11:05:19;27.40;;;17.33;;
24801;SDS011;12898;50.520;12.152;2023-12-07T11:14:13;28.53;;;16.67;;
24801;SDS011;12898;50.520;12.152;2023-12-07T11:16:42;26.87;;;16.43;;
24801;SDS011;12898;50.520;12.152;2023-12-07T11:21:57;31.20;;;17.17;;
24801;SDS011;12898;50.520;12.152;2023-12-07T11:24:24;28.77;;;17.63;;
24801;SDS011;12898;50.520;12.152;2023-12-07T11:26:53;27.13;;;16.57;;
24801;SDS011;12898;50.520;12.152;2023-12-07T11:29:23;31.50;;;18.23;;
24801;SDS011;12898;50.520;12.152;2023-12-07T11:31:51;27.23;;;17.40;;
24801;SDS011;12898;50.520;12.152;2023-12-07T11:34:34;27.27;;;16.97;;
24801;SDS011;12898;50.520;12.152;2023-12-07T11:37:04;30.40;;;17.90;;
24801;SDS011;12898;50.520;12.152;2023-12-07T11:39:37;30.40;;;18.37;;
24801;SDS011;12898;50.520;12.152;2023-12-07T11:42:20;26.37;;;17.07;;
24801;SDS011;12898;50.520;12.152;2023-12-07T11:44:48;29.10;;;17.07;;
24801;SDS011;12898;50.520;12.152;2023-12-07T11:47:16;28.40;;;16.87;;
24801;SDS011;12898;50.520;12.152;2023-12-07T11:49:43;30.97;;;19.53;;
24801;SDS011;12898;50.520;12.152;2023-12-07T11:52:17;34.97;;;19.43;;
24801;SDS011;12898;50.520;12.152;2023-12-07T11:54:48;31.93;;;20.00;;
24801;SDS011;12898;50.520;12.152;2023-12-07T11:57:15;30.07;;;18.83;;
24801;SDS011;12898;50.520;12.152;2023-12-07T11:59:46;27.60;;;17.40;;
24801;SDS011;12898;50.520;12.152;2023-12-07T12:02:13;29.17;;;16.97;;
24801;SDS011;12898;50.520;12.152;2023-12-07T12:04:41;28.83;;;17.83;;
24801;SDS011;12898;50.520;12.152;2023-12-07T12:07:07;29.20;;;17.83;;
24801;SDS011;12898;50.520;12.152;2023-12-07T12:09:33;25.90;;;17.10;;
24801;SDS011;12898;50.520;12.152;2023-12-07T12:11:59;29.50;;;18.90;;
24801;SDS011;12898;50.520;12.152;2023-12-07T12:14:26;30.73;;;17.97;;
24801;SDS011;12898;50.520;12.152;2023-12-07T12:16:53;30.50;;;18.47;;
24801;SDS011;12898;50.520;12.152;2023-12-07T12:19:21;32.20;;;18.97;;
24801;SDS011;12898;50.520;12.152;2023-12-07T12:21:49;26.80;;;17.37;;
24801;SDS011;12898;50.520;12.152;2023-12-07T12:24:15;27.80;;;16.77;;
24801;SDS011;12898;50.520;12.152;2023-12-07T12:26:41;26.87;;;17.63;;
24801;SDS011;12898;50.520;12.152;2023-12-07T12:29:08;28.23;;;17.63;;
24801;SDS011;12898;50.520;12.152;2023-12-07T12:31:34;30.13;;;17.10;;
24801;SDS011;12898;50.520;12.152;2023-12-07T12:34:06;30.07;;;17.93;;
24801;SDS011;12898;50.520;12.152;2023-12-07T12:36:37;27.30;;;16.57;;
24801;SDS011;12898;50.520;12.152;2023-12-07T12:39:02;26.33;;;15.77;;
24801;SDS011;12898;50.520;12.152;2023-12-07T12:41:33;28.27;;;18.00;;
24801;SDS011;12898;50.520;12.152;2023-12-07T12:43:59;27.07;;;17.60;;
24801;SDS011;12898;50.520;12.152;2023-12-07T12:46:25;28.67;;;16.77;;
24801;SDS011;12898;50.520;12.152;2023-12-07T12:48:58;27.73;;;16.30;;
24801;SDS011;12898;50.520;12.152;2023-12-07T12:51:28;28.17;;;17.23;;
24801;SDS011;12898;50.520;12.152;2023-12-07T12:53:58;25.83;;;16.23;;
24801;SDS011;12898;50.520;12.152;2023-12-07T12:56:25;30.23;;;16.90;;
24801;SDS011;12898;50.520;12.152;2023-12-07T12:58:52;26.60;;;16.83;;
24801;SDS011;12898;50.520;12.152;2023-12-07T13:01:23;27.03;;;16.93;;
24801;SDS011;12898;50.520;12.152;2023-12-07T13:03:49;27.23;;;15.83;;
24801;SDS011;12898;50.520;12.152;2023-12-07T13:06:15;27.47;;;16.40;;
24801;SDS011;12898;50.520;12.152;2023-12-07T13:08:45;25.43;;;15.50;;
24801;SDS011;12898;50.520;12.152;2023-12-07T13:11:18;28.40;;;16.93;;
24801;SDS011;12898;50.520;12.152;2023-12-07T13:13:45;24.30;;;15.90;;
24801;SDS011;12898;50.520;12.152;2023-12-07T13:16:12;24.77;;;15.80;;
24801;SDS011;12898;50.520;12.152;2023-12-07T13:18:39;25.17;;;16.03;;
24801;SDS011;12898;50.520;12.152;2023-12-07T13:21:06;24.77;;;16.10;;
24801;SDS011;12898;50.520;12.152;2023-12-07T13:23:31;24.37;;;15.33;;
24801;SDS011;12898;50.520;12.152;2023-12-07T13:25:57;28.63;;;16.10;;
24801;SDS011;12898;50.520;12.152;2023-12-07T13:28:23;24.43;;;15.40;;
24801;SDS011;12898;50.520;12.152;2023-12-07T13:30:49;24.27;;;15.47;;
24801;SDS011;12898;50.520;12.152;2023-12-07T13:33:15;22.50;;;14.63;;
24801;SDS011;12898;50.520;12.152;2023-12-07T13:35:41;25.00;;;14.37;;
24801;SDS011;12898;50.520;12.152;2023-12-07T13:38:06;23.70;;;14.67;;
24801;SDS011;12898;50.520;12.152;2023-12-07T13:40:32;24.93;;;15.07;;
24801;SDS011;12898;50.520;12.152;2023-12-07T13:42:58;25.40;;;15.00;;
24801;SDS011;12898;50.520;12.152;2023-12-07T13:45:23;24.10;;;15.00;;
24801;SDS011;12898;50.520;12.152;2023-12-07T13:47:49;25.37;;;15.93;;
24801;SDS011;12898;50.520;12.152;2023-12-07T13:50:16;23.30;;;14.90;;
24801;SDS011;12898;50.520;12.152;2023-12-07T13:52:42;25.10;;;15.33;;
24801;SDS011;12898;50.520;12.152;2023-12-07T13:55:08;24.33;;;15.77;;
24801;SDS011;12898;50.520;12.152;2023-12-07T13:57:34;28.37;;;16.53;;
24801;SDS011;12898;50.520;12.152;2023-12-07T14:00:00;27.60;;;16.83;;
24801;SDS011;12898;50.520;12.152;2023-12-07T14:02:25;26.50;;;15.30;;
24801;SDS011;12898;50.520;12.152;2023-12-07T14:04:53;26.83;;;16.63;;
24801;SDS011;12898;50.520;12.152;2023-12-07T14:07:20;27.63;;;16.27;;
24801;SDS011;12898;50.520;12.152;2023-12-07T14:09:51;26.70;;;16.90;;
24801;SDS011;12898;50.520;12.152;2023-12-07T14:12:17;26.60;;;16.43;;
24801;SDS011;12898;50.520;12.152;2023-12-07T14:14:45;27.43;;;16.67;;
24801;SDS011;12898;50.520;12.152;2023-12-07T14:17:12;27.77;;;17.57;;
24801;SDS011;12898;50.520;12.152;2023-12-07T14:19:39;28.03;;;16.97;;
24801;SDS011;12898;50.520;12.152;2023-12-07T14:22:06;26.33;;;15.53;;